LIPY/AOI METAR and TAF weather

Enter ICAO airport designator
Station Type Date Time Source
LIPY METAR 2020/04/05 17:50 UTC NOAA

LIPY 051750Z 32007KT CAVOK 14/02 Q1021


Station Type Date Time Source
LIPY Decoded METAR 2020/04/05 17:50 UTC NOAA

Falconara, Italy (LIPY) 43-37N 013-22E 10M
Apr 05, 2020 - 01:50 PM EDT / 2020.04.05 1750 UTC
Wind: from the NW (320 degrees) at 8 MPH (7 KT):0
Visibility: greater than 7 mile(s):0
Temperature: 57 F (14 C)
Dew Point: 35 F (2 C)
Relative Humidity: 44%
Pressure (altimeter): 30.15 in. Hg (1021 hPa)
ob: LIPY 051750Z 32007KT CAVOK 14/02 Q1021
cycle: 18

Station Type Date Time Source
LIPY TAF 2020/04/05 18:21 UTC NOAA

TAF LIPY 051700Z 0518/0618 35008KT CAVOK

Example: see airport list